sensor_id;sensor_type;location;lat;lon;timestamp;P1;durP1;ratioP1;P2;durP2;ratioP2
45909;SDS011;31622;55.416;37.840;2024-02-28T00:02:14;2.20;;;1.25;;
45909;SDS011;31622;55.416;37.840;2024-02-28T00:04:40;3.28;;;1.48;;
45909;SDS011;31622;55.416;37.840;2024-02-28T00:07:06;4.05;;;1.40;;
45909;SDS011;31622;55.416;37.840;2024-02-28T00:09:32;4.03;;;1.40;;
45909;SDS011;31622;55.416;37.840;2024-02-28T00:11:57;2.75;;;1.40;;
45909;SDS011;31622;55.416;37.840;2024-02-28T00:14:23;2.28;;;1.35;;
45909;SDS011;31622;55.416;37.840;2024-02-28T00:16:49;2.80;;;1.48;;
45909;SDS011;31622;55.416;37.840;2024-02-28T00:19:15;2.33;;;1.27;;
45909;SDS011;31622;55.416;37.840;2024-02-28T00:21:43;4.90;;;1.45;;
45909;SDS011;31622;55.416;37.840;2024-02-28T00:24:09;3.28;;;1.55;;
45909;SDS011;31622;55.416;37.840;2024-02-28T00:26:35;2.85;;;1.58;;
45909;SDS011;31622;55.416;37.840;2024-02-28T00:29:05;3.13;;;1.52;;
45909;SDS011;31622;55.416;37.840;2024-02-28T00:31:31;2.78;;;1.23;;
45909;SDS011;31622;55.416;37.840;2024-02-28T00:33:56;2.30;;;1.30;;
45909;SDS011;31622;55.416;37.840;2024-02-28T00:36:22;2.42;;;1.30;;
45909;SDS011;31622;55.416;37.840;2024-02-28T00:38:47;2.10;;;1.40;;
45909;SDS011;31622;55.416;37.840;2024-02-28T00:41:13;3.63;;;1.45;;
45909;SDS011;31622;55.416;37.840;2024-02-28T00:43:39;2.83;;;1.40;;
45909;SDS011;31622;55.416;37.840;2024-02-28T00:46:05;2.65;;;1.45;;
45909;SDS011;31622;55.416;37.840;2024-02-28T00:48:36;3.33;;;1.40;;
45909;SDS011;31622;55.416;37.840;2024-02-28T00:51:02;3.13;;;1.27;;
45909;SDS011;31622;55.416;37.840;2024-02-28T00:53:28;3.28;;;1.50;;
45909;SDS011;31622;55.416;37.840;2024-02-28T00:55:54;3.17;;;1.30;;
45909;SDS011;31622;55.416;37.840;2024-02-28T00:58:20;3.58;;;1.10;;
45909;SDS011;31622;55.416;37.840;2024-02-28T01:00:47;2.45;;;1.45;;
45909;SDS011;31622;55.416;37.840;2024-02-28T01:03:13;3.15;;;1.33;;
45909;SDS011;31622;55.416;37.840;2024-02-28T01:05:41;1.98;;;1.20;;
45909;SDS011;31622;55.416;37.840;2024-02-28T01:08:07;2.22;;;1.40;;
45909;SDS011;31622;55.416;37.840;2024-02-28T01:10:36;2.13;;;1.30;;
45909;SDS011;31622;55.416;37.840;2024-02-28T01:13:02;3.03;;;1.40;;
45909;SDS011;31622;55.416;37.840;2024-02-28T01:15:28;1.38;;;0.85;;
45909;SDS011;31622;55.416;37.840;2024-02-28T01:17:54;2.33;;;1.40;;
45909;SDS011;31622;55.416;37.840;2024-02-28T01:20:19;2.53;;;1.23;;
45909;SDS011;31622;55.416;37.840;2024-02-28T01:22:45;2.00;;;0.95;;
45909;SDS011;31622;55.416;37.840;2024-02-28T01:25:11;1.80;;;1.10;;
45909;SDS011;31622;55.416;37.840;2024-02-28T01:27:37;2.42;;;1.17;;
45909;SDS011;31622;55.416;37.840;2024-02-28T01:30:02;2.15;;;1.17;;
45909;SDS011;31622;55.416;37.840;2024-02-28T01:32:29;2.65;;;1.15;;
45909;SDS011;31622;55.416;37.840;2024-02-28T01:34:55;1.75;;;0.93;;
45909;SDS011;31622;55.416;37.840;2024-02-28T01:37:21;2.40;;;1.08;;
45909;SDS011;31622;55.416;37.840;2024-02-28T01:39:46;1.77;;;1.08;;
45909;SDS011;31622;55.416;37.840;2024-02-28T01:42:13;2.25;;;1.10;;
45909;SDS011;31622;55.416;37.840;2024-02-28T01:44:43;1.65;;;1.02;;
45909;SDS011;31622;55.416;37.840;2024-02-28T01:47:10;2.33;;;1.20;;
45909;SDS011;31622;55.416;37.840;2024-02-28T01:49:36;2.10;;;0.90;;
45909;SDS011;31622;55.416;37.840;2024-02-28T01:52:02;2.42;;;1.20;;
45909;SDS011;31622;55.416;37.840;2024-02-28T01:54:28;2.15;;;1.13;;
45909;SDS011;31622;55.416;37.840;2024-02-28T01:56:55;2.70;;;1.35;;
45909;SDS011;31622;55.416;37.840;2024-02-28T01:59:21;2.28;;;1.25;;
45909;SDS011;31622;55.416;37.840;2024-02-28T02:01:48;2.20;;;1.23;;
45909;SDS011;31622;55.416;37.840;2024-02-28T02:04:14;2.03;;;1.17;;
45909;SDS011;31622;55.416;37.840;2024-02-28T02:06:42;2.55;;;1.17;;
45909;SDS011;31622;55.416;37.840;2024-02-28T02:09:08;2.65;;;1.10;;
45909;SDS011;31622;55.416;37.840;2024-02-28T02:11:33;2.03;;;1.25;;
45909;SDS011;31622;55.416;37.840;2024-02-28T02:13:59;2.67;;;1.30;;
45909;SDS011;31622;55.416;37.840;2024-02-28T02:16:25;3.72;;;1.38;;
45909;SDS011;31622;55.416;37.840;2024-02-28T02:18:53;1.92;;;1.17;;
45909;SDS011;31622;55.416;37.840;2024-02-28T02:21:23;2.00;;;1.20;;
45909;SDS011;31622;55.416;37.840;2024-02-28T02:23:49;2.17;;;1.10;;
45909;SDS011;31622;55.416;37.840;2024-02-28T02:26:15;1.85;;;1.10;;
45909;SDS011;31622;55.416;37.840;2024-02-28T02:28:41;2.20;;;1.17;;
45909;SDS011;31622;55.416;37.840;2024-02-28T02:31:07;1.90;;;1.00;;
45909;SDS011;31622;55.416;37.840;2024-02-28T02:33:33;2.65;;;1.25;;
45909;SDS011;31622;55.416;37.840;2024-02-28T02:35:59;3.47;;;1.27;;
45909;SDS011;31622;55.416;37.840;2024-02-28T02:38:24;2.35;;;1.17;;
45909;SDS011;31622;55.416;37.840;2024-02-28T02:40:50;2.05;;;1.15;;
45909;SDS011;31622;55.416;37.840;2024-02-28T02:43:16;1.67;;;0.98;;
45909;SDS011;31622;55.416;37.840;2024-02-28T02:45:42;2.08;;;1.30;;
45909;SDS011;31622;55.416;37.840;2024-02-28T02:48:09;1.98;;;1.13;;
45909;SDS011;31622;55.416;37.840;2024-02-28T02:50:34;5.53;;;1.20;;
45909;SDS011;31622;55.416;37.840;2024-02-28T02:53:00;3.47;;;1.23;;
45909;SDS011;31622;55.416;37.840;2024-02-28T02:55:27;2.13;;;1.20;;
45909;SDS011;31622;55.416;37.840;2024-02-28T02:57:53;2.45;;;1.05;;
45909;SDS011;31622;55.416;37.840;2024-02-28T03:00:19;4.03;;;1.27;;
45909;SDS011;31622;55.416;37.840;2024-02-28T03:02:45;2.38;;;1.05;;
45909;SDS011;31622;55.416;37.840;2024-02-28T03:05:11;2.13;;;1.10;;
45909;SDS011;31622;55.416;37.840;2024-02-28T03:07:36;2.08;;;0.90;;
45909;SDS011;31622;55.416;37.840;2024-02-28T03:10:02;4.70;;;1.35;;
45909;SDS011;31622;55.416;37.840;2024-02-28T03:12:28;2.10;;;1.10;;
45909;SDS011;31622;55.416;37.840;2024-02-28T03:14:54;2.92;;;1.25;;
45909;SDS011;31622;55.416;37.840;2024-02-28T03:17:20;3.75;;;1.50;;
45909;SDS011;31622;55.416;37.840;2024-02-28T03:19:45;3.85;;;1.63;;
45909;SDS011;31622;55.416;37.840;2024-02-28T03:22:12;4.82;;;1.73;;
45909;SDS011;31622;55.416;37.840;2024-02-28T03:24:38;5.90;;;1.73;;
45909;SDS011;31622;55.416;37.840;2024-02-28T03:27:03;3.05;;;1.88;;
45909;SDS011;31622;55.416;37.840;2024-02-28T03:29:30;3.38;;;1.58;;
45909;SDS011;31622;55.416;37.840;2024-02-28T03:31:55;3.67;;;2.30;;
45909;SDS011;31622;55.416;37.840;2024-02-28T03:34:22;3.10;;;2.00;;
45909;SDS011;31622;55.416;37.840;2024-02-28T03:36:47;3.42;;;2.08;;
45909;SDS011;31622;55.416;37.840;2024-02-28T03:39:13;3.10;;;1.80;;
45909;SDS011;31622;55.416;37.840;2024-02-28T03:41:39;2.40;;;1.67;;
45909;SDS011;31622;55.416;37.840;2024-02-28T03:44:05;3.20;;;1.70;;
45909;SDS011;31622;55.416;37.840;2024-02-28T03:46:30;3.15;;;1.80;;
45909;SDS011;31622;55.416;37.840;2024-02-28T03:48:56;6.30;;;2.00;;
45909;SDS011;31622;55.416;37.840;2024-02-28T03:51:22;3.40;;;1.70;;
45909;SDS011;31622;55.416;37.840;2024-02-28T03:53:48;3.15;;;1.95;;
45909;SDS011;31622;55.416;37.840;2024-02-28T03:56:21;3.10;;;1.70;;
45909;SDS011;31622;55.416;37.840;2024-02-28T03:58:48;2.88;;;1.60;;
45909;SDS011;31622;55.416;37.840;2024-02-28T04:01:13;3.63;;;1.83;;
45909;SDS011;31622;55.416;37.840;2024-02-28T04:03:39;3.40;;;1.85;;
45909;SDS011;31622;55.416;37.840;2024-02-28T04:06:05;2.35;;;1.42;;
45909;SDS011;31622;55.416;37.840;2024-02-28T04:08:30;5.65;;;1.42;;
45909;SDS011;31622;55.416;37.840;2024-02-28T04:10:56;2.42;;;1.35;;
45909;SDS011;31622;55.416;37.840;2024-02-28T04:13:22;8.57;;;1.42;;
45909;SDS011;31622;55.416;37.840;2024-02-28T04:15:48;3.22;;;1.40;;
45909;SDS011;31622;55.416;37.840;2024-02-28T04:18:13;3.10;;;1.33;;
45909;SDS011;31622;55.416;37.840;2024-02-28T04:20:39;3.33;;;1.30;;
45909;SDS011;31622;55.416;37.840;2024-02-28T04:23:04;2.75;;;1.00;;
45909;SDS011;31622;55.416;37.840;2024-02-28T04:25:30;2.30;;;1.30;;
45909;SDS011;31622;55.416;37.840;2024-02-28T04:27:56;2.58;;;1.13;;
45909;SDS011;31622;55.416;37.840;2024-02-28T04:30:24;3.85;;;1.27;;
45909;SDS011;31622;55.416;37.840;2024-02-28T04:32:50;2.80;;;1.20;;
45909;SDS011;31622;55.416;37.840;2024-02-28T04:35:16;2.85;;;1.20;;
45909;SDS011;31622;55.416;37.840;2024-02-28T04:37:44;2.65;;;1.40;;
45909;SDS011;31622;55.416;37.840;2024-02-28T04:40:11;2.38;;;0.90;;
45909;SDS011;31622;55.416;37.840;2024-02-28T04:42:37;3.15;;;1.13;;
45909;SDS011;31622;55.416;37.840;2024-02-28T04:45:03;2.25;;;1.40;;
45909;SDS011;31622;55.416;37.840;2024-02-28T04:47:29;4.93;;;1.98;;
45909;SDS011;31622;55.416;37.840;2024-02-28T04:49:56;4.55;;;1.77;;
45909;SDS011;31622;55.416;37.840;2024-02-28T04:52:22;6.13;;;1.98;;
45909;SDS011;31622;55.416;37.840;2024-02-28T04:54:48;8.45;;;2.13;;
45909;SDS011;31622;55.416;37.840;2024-02-28T04:57:13;7.95;;;2.13;;
45909;SDS011;31622;55.416;37.840;2024-02-28T04:59:41;5.25;;;2.13;;
45909;SDS011;31622;55.416;37.840;2024-02-28T05:02:07;4.22;;;2.08;;
45909;SDS011;31622;55.416;37.840;2024-02-28T05:04:32;5.95;;;2.03;;
45909;SDS011;31622;55.416;37.840;2024-02-28T05:06:58;2.83;;;1.60;;
45909;SDS011;31622;55.416;37.840;2024-02-28T05:09:24;4.88;;;1.83;;
45909;SDS011;31622;55.416;37.840;2024-02-28T05:11:49;6.18;;;1.90;;
45909;SDS011;31622;55.416;37.840;2024-02-28T05:14:16;4.28;;;2.40;;
45909;SDS011;31622;55.416;37.840;2024-02-28T05:16:41;6.68;;;2.15;;
45909;SDS011;31622;55.416;37.840;2024-02-28T05:19:07;4.35;;;2.28;;
45909;SDS011;31622;55.416;37.840;2024-02-28T05:21:39;13.15;;;2.40;;
45909;SDS011;31622;55.416;37.840;2024-02-28T05:24:06;4.45;;;2.00;;
45909;SDS011;31622;55.416;37.840;2024-02-28T05:26:31;7.43;;;2.28;;
45909;SDS011;31622;55.416;37.840;2024-02-28T05:29:00;4.28;;;2.15;;
45909;SDS011;31622;55.416;37.840;2024-02-28T05:31:26;4.30;;;1.90;;
45909;SDS011;31622;55.416;37.840;2024-02-28T05:33:53;4.68;;;2.28;;
45909;SDS011;31622;55.416;37.840;2024-02-28T05:36:22;4.53;;;2.17;;
45909;SDS011;31622;55.416;37.840;2024-02-28T05:38:49;5.35;;;2.20;;
45909;SDS011;31622;55.416;37.840;2024-02-28T05:41:16;5.28;;;2.20;;
45909;SDS011;31622;55.416;37.840;2024-02-28T05:43:42;3.63;;;2.10;;
45909;SDS011;31622;55.416;37.840;2024-02-28T05:46:08;3.50;;;1.95;;
45909;SDS011;31622;55.416;37.840;2024-02-28T05:48:34;3.50;;;2.03;;
45909;SDS011;31622;55.416;37.840;2024-02-28T05:51:03;4.47;;;2.10;;
45909;SDS011;31622;55.416;37.840;2024-02-28T05:53:29;4.18;;;2.10;;
45909;SDS011;31622;55.416;37.840;2024-02-28T05:56:01;4.10;;;2.10;;
45909;SDS011;31622;55.416;37.840;2024-02-28T05:58:27;4.93;;;2.17;;
45909;SDS011;31622;55.416;37.840;2024-02-28T06:00:53;3.55;;;1.92;;
45909;SDS011;31622;55.416;37.840;2024-02-28T06:03:19;4.78;;;2.53;;
45909;SDS011;31622;55.416;37.840;2024-02-28T06:05:45;5.47;;;2.35;;
45909;SDS011;31622;55.416;37.840;2024-02-28T06:08:12;4.25;;;2.20;;
45909;SDS011;31622;55.416;37.840;2024-02-28T06:10:38;4.70;;;2.53;;
45909;SDS011;31622;55.416;37.840;2024-02-28T06:13:04;5.20;;;2.70;;
45909;SDS011;31622;55.416;37.840;2024-02-28T06:15:29;6.30;;;2.85;;
45909;SDS011;31622;55.416;37.840;2024-02-28T06:17:59;5.78;;;3.60;;
45909;SDS011;31622;55.416;37.840;2024-02-28T06:20:26;6.85;;;4.50;;
45909;SDS011;31622;55.416;37.840;2024-02-28T06:22:52;18.45;;;7.88;;
45909;SDS011;31622;55.416;37.840;2024-02-28T06:25:18;27.88;;;10.50;;
45909;SDS011;31622;55.416;37.840;2024-02-28T06:27:45;28.25;;;10.52;;
45909;SDS011;31622;55.416;37.840;2024-02-28T06:30:11;31.50;;;11.52;;
45909;SDS011;31622;55.416;37.840;2024-02-28T06:32:42;24.10;;;11.60;;
45909;SDS011;31622;55.416;37.840;2024-02-28T06:35:08;30.95;;;11.63;;
45909;SDS011;31622;55.416;37.840;2024-02-28T06:37:34;28.13;;;11.40;;
45909;SDS011;31622;55.416;37.840;2024-02-28T06:40:00;31.70;;;11.75;;
45909;SDS011;31622;55.416;37.840;2024-02-28T06:42:27;26.48;;;11.95;;
45909;SDS011;31622;55.416;37.840;2024-02-28T06:44:53;38.70;;;10.77;;
45909;SDS011;31622;55.416;37.840;2024-02-28T06:47:19;27.58;;;10.52;;
45909;SDS011;31622;55.416;37.840;2024-02-28T06:49:45;31.05;;;10.68;;
45909;SDS011;31622;55.416;37.840;2024-02-28T06:52:11;30.02;;;10.93;;
45909;SDS011;31622;55.416;37.840;2024-02-28T06:54:37;21.23;;;9.15;;
45909;SDS011;31622;55.416;37.840;2024-02-28T06:57:03;24.02;;;10.25;;
45909;SDS011;31622;55.416;37.840;2024-02-28T06:59:28;18.15;;;8.90;;
45909;SDS011;31622;55.416;37.840;2024-02-28T07:01:54;21.65;;;8.65;;
45909;SDS011;31622;55.416;37.840;2024-02-28T07:04:20;17.13;;;9.45;;
45909;SDS011;31622;55.416;37.840;2024-02-28T07:06:45;20.83;;;8.40;;
45909;SDS011;31622;55.416;37.840;2024-02-28T07:09:11;17.40;;;7.68;;
45909;SDS011;31622;55.416;37.840;2024-02-28T07:11:37;17.50;;;7.80;;
45909;SDS011;31622;55.416;37.840;2024-02-28T07:14:03;15.52;;;7.63;;
45909;SDS011;31622;55.416;37.840;2024-02-28T07:16:30;16.52;;;7.35;;
45909;SDS011;31622;55.416;37.840;2024-02-28T07:18:57;17.48;;;6.88;;
45909;SDS011;31622;55.416;37.840;2024-02-28T07:21:23;13.43;;;6.63;;
45909;SDS011;31622;55.416;37.840;2024-02-28T07:23:49;13.27;;;6.50;;
45909;SDS011;31622;55.416;37.840;2024-02-28T07:26:15;18.70;;;6.93;;
45909;SDS011;31622;55.416;37.840;2024-02-28T07:28:41;13.75;;;6.90;;
45909;SDS011;31622;55.416;37.840;2024-02-28T07:31:13;11.82;;;6.45;;
45909;SDS011;31622;55.416;37.840;2024-02-28T07:33:40;17.67;;;6.70;;
45909;SDS011;31622;55.416;37.840;2024-02-28T07:36:05;25.73;;;7.72;;
45909;SDS011;31622;55.416;37.840;2024-02-28T07:38:34;28.50;;;9.30;;
45909;SDS011;31622;55.416;37.840;2024-02-28T07:40:59;27.58;;;9.93;;
45909;SDS011;31622;55.416;37.840;2024-02-28T07:43:25;37.15;;;10.07;;
45909;SDS011;31622;55.416;37.840;2024-02-28T07:45:51;34.97;;;11.27;;
45909;SDS011;31622;55.416;37.840;2024-02-28T07:48:17;50.50;;;14.13;;
45909;SDS011;31622;55.416;37.840;2024-02-28T07:50:45;48.42;;;14.88;;
45909;SDS011;31622;55.416;37.840;2024-02-28T07:53:12;48.67;;;15.65;;
45909;SDS011;31622;55.416;37.840;2024-02-28T07:55:38;49.92;;;16.42;;
45909;SDS011;31622;55.416;37.840;2024-02-28T07:58:04;59.00;;;18.15;;
45909;SDS011;31622;55.416;37.840;2024-02-28T08:00:31;56.30;;;18.00;;
45909;SDS011;31622;55.416;37.840;2024-02-28T08:02:58;64.32;;;19.35;;
45909;SDS011;31622;55.416;37.840;2024-02-28T08:05:24;66.75;;;22.27;;
45909;SDS011;31622;55.416;37.840;2024-02-28T08:07:50;92.78;;;31.75;;
45909;SDS011;31622;55.416;37.840;2024-02-28T08:10:16;89.05;;;30.48;;
45909;SDS011;31622;55.416;37.840;2024-02-28T08:12:41;90.45;;;31.92;;
45909;SDS011;31622;55.416;37.840;2024-02-28T08:15:07;87.38;;;31.70;;
45909;SDS011;31622;55.416;37.840;2024-02-28T08:17:33;79.82;;;29.70;;
45909;SDS011;31622;55.416;37.840;2024-02-28T08:19:59;75.38;;;26.83;;
45909;SDS011;31622;55.416;37.840;2024-02-28T08:22:25;76.63;;;27.70;;
45909;SDS011;31622;55.416;37.840;2024-02-28T08:24:51;68.88;;;24.63;;
45909;SDS011;31622;55.416;37.840;2024-02-28T08:27:17;69.05;;;24.77;;
45909;SDS011;31622;55.416;37.840;2024-02-28T08:29:43;62.28;;;23.15;;
45909;SDS011;31622;55.416;37.840;2024-02-28T08:32:10;58.75;;;22.52;;
45909;SDS011;31622;55.416;37.840;2024-02-28T08:34:36;56.63;;;21.42;;
45909;SDS011;31622;55.416;37.840;2024-02-28T08:37:02;57.33;;;22.10;;
45909;SDS011;31622;55.416;37.840;2024-02-28T08:39:28;54.97;;;20.55;;
45909;SDS011;31622;55.416;37.840;2024-02-28T08:41:54;52.15;;;20.10;;
45909;SDS011;31622;55.416;37.840;2024-02-28T08:44:19;54.97;;;19.85;;
45909;SDS011;31622;55.416;37.840;2024-02-28T08:46:46;42.20;;;17.63;;
45909;SDS011;31622;55.416;37.840;2024-02-28T08:49:13;45.08;;;16.65;;
45909;SDS011;31622;55.416;37.840;2024-02-28T08:51:39;42.85;;;16.35;;
45909;SDS011;31622;55.416;37.840;2024-02-28T08:54:05;39.45;;;15.32;;
45909;SDS011;31622;55.416;37.840;2024-02-28T08:56:31;41.75;;;15.20;;
45909;SDS011;31622;55.416;37.840;2024-02-28T08:58:58;33.53;;;13.32;;
45909;SDS011;31622;55.416;37.840;2024-02-28T09:01:24;36.10;;;14.27;;
45909;SDS011;31622;55.416;37.840;2024-02-28T09:03:50;35.80;;;14.10;;
45909;SDS011;31622;55.416;37.840;2024-02-28T09:06:15;30.25;;;13.30;;
45909;SDS011;31622;55.416;37.840;2024-02-28T09:08:41;28.42;;;12.70;;
45909;SDS011;31622;55.416;37.840;2024-02-28T09:11:07;26.40;;;11.48;;
45909;SDS011;31622;55.416;37.840;2024-02-28T09:13:33;22.90;;;10.95;;
45909;SDS011;31622;55.416;37.840;2024-02-28T09:16:01;27.05;;;11.13;;
45909;SDS011;31622;55.416;37.840;2024-02-28T09:18:27;22.63;;;10.23;;
45909;SDS011;31622;55.416;37.840;2024-02-28T09:20:53;22.98;;;10.27;;
45909;SDS011;31622;55.416;37.840;2024-02-28T09:23:18;21.35;;;10.52;;
45909;SDS011;31622;55.416;37.840;2024-02-28T09:25:44;22.92;;;9.88;;
45909;SDS011;31622;55.416;37.840;2024-02-28T09:28:10;21.13;;;9.52;;
45909;SDS011;31622;55.416;37.840;2024-02-28T09:30:39;21.25;;;9.65;;
45909;SDS011;31622;55.416;37.840;2024-02-28T09:33:04;22.77;;;9.20;;
45909;SDS011;31622;55.416;37.840;2024-02-28T09:35:30;20.77;;;8.90;;
45909;SDS011;31622;55.416;37.840;2024-02-28T09:37:56;21.40;;;9.30;;
45909;SDS011;31622;55.416;37.840;2024-02-28T09:40:22;18.05;;;8.43;;
45909;SDS011;31622;55.416;37.840;2024-02-28T09:42:57;21.05;;;9.43;;
45909;SDS011;31622;55.416;37.840;2024-02-28T09:45:29;18.63;;;7.82;;
45909;SDS011;31622;55.416;37.840;2024-02-28T09:47:58;16.05;;;7.97;;
45909;SDS011;31622;55.416;37.840;2024-02-28T09:50:25;16.00;;;7.65;;
45909;SDS011;31622;55.416;37.840;2024-02-28T09:52:52;20.17;;;7.63;;
45909;SDS011;31622;55.416;37.840;2024-02-28T09:55:19;16.25;;;6.72;;
45909;SDS011;31622;55.416;37.840;2024-02-28T09:57:48;17.35;;;7.30;;
45909;SDS011;31622;55.416;37.840;2024-02-28T10:00:17;20.10;;;7.28;;
45909;SDS011;31622;55.416;37.840;2024-02-28T10:02:48;13.38;;;6.35;;
45909;SDS011;31622;55.416;37.840;2024-02-28T10:05:15;13.05;;;6.50;;
45909;SDS011;31622;55.416;37.840;2024-02-28T10:07:44;18.35;;;5.43;;
45909;SDS011;31622;55.416;37.840;2024-02-28T10:10:12;12.27;;;5.40;;
45909;SDS011;31622;55.416;37.840;2024-02-28T10:12:41;14.40;;;6.10;;
45909;SDS011;31622;55.416;37.840;2024-02-28T10:15:09;11.18;;;5.40;;
45909;SDS011;31622;55.416;37.840;2024-02-28T10:17:36;11.07;;;5.10;;
45909;SDS011;31622;55.416;37.840;2024-02-28T10:20:02;10.40;;;5.35;;
45909;SDS011;31622;55.416;37.840;2024-02-28T10:22:35;9.35;;;5.22;;
45909;SDS011;31622;55.416;37.840;2024-02-28T10:25:02;9.93;;;4.57;;
45909;SDS011;31622;55.416;37.840;2024-02-28T10:27:31;8.20;;;4.72;;
45909;SDS011;31622;55.416;37.840;2024-02-28T10:29:59;11.15;;;4.88;;
45909;SDS011;31622;55.416;37.840;2024-02-28T10:32:24;8.65;;;4.50;;
45909;SDS011;31622;55.416;37.840;2024-02-28T10:34:50;10.35;;;5.00;;
45909;SDS011;31622;55.416;37.840;2024-02-28T10:37:16;8.30;;;4.35;;
45909;SDS011;31622;55.416;37.840;2024-02-28T10:39:43;8.57;;;4.97;;
45909;SDS011;31622;55.416;37.840;2024-02-28T10:42:09;6.35;;;3.90;;
45909;SDS011;31622;55.416;37.840;2024-02-28T10:44:36;10.55;;;5.28;;
45909;SDS011;31622;55.416;37.840;2024-02-28T10:47:03;7.95;;;4.05;;
45909;SDS011;31622;55.416;37.840;2024-02-28T10:49:29;9.50;;;4.40;;
45909;SDS011;31622;55.416;37.840;2024-02-28T10:51:56;7.28;;;4.05;;
45909;SDS011;31622;55.416;37.840;2024-02-28T10:54:22;7.68;;;4.13;;
45909;SDS011;31622;55.416;37.840;2024-02-28T10:56:50;7.70;;;3.67;;
45909;SDS011;31622;55.416;37.840;2024-02-28T10:59:17;8.32;;;3.97;;
45909;SDS011;31622;55.416;37.840;2024-02-28T11:01:43;7.70;;;3.95;;
45909;SDS011;31622;55.416;37.840;2024-02-28T11:04:09;6.45;;;3.80;;
45909;SDS011;31622;55.416;37.840;2024-02-28T11:06:46;6.75;;;3.92;;
45909;SDS011;31622;55.416;37.840;2024-02-28T11:09:19;7.60;;;3.78;;
45909;SDS011;31622;55.416;37.840;2024-02-28T11:11:48;6.50;;;3.60;;
45909;SDS011;31622;55.416;37.840;2024-02-28T11:14:15;5.00;;;3.42;;
45909;SDS011;31622;55.416;37.840;2024-02-28T11:16:42;4.72;;;3.35;;
45909;SDS011;31622;55.416;37.840;2024-02-28T11:19:21;7.22;;;3.47;;
45909;SDS011;31622;55.416;37.840;2024-02-28T11:21:53;5.88;;;3.45;;
45909;SDS011;31622;55.416;37.840;2024-02-28T11:24:22;7.07;;;3.20;;
45909;SDS011;31622;55.416;37.840;2024-02-28T11:26:50;6.22;;;3.28;;
45909;SDS011;31622;55.416;37.840;2024-02-28T11:29:21;5.80;;;3.22;;
45909;SDS011;31622;55.416;37.840;2024-02-28T11:31:48;6.10;;;3.67;;
45909;SDS011;31622;55.416;37.840;2024-02-28T11:34:14;4.72;;;3.20;;
45909;SDS011;31622;55.416;37.840;2024-02-28T11:36:40;5.57;;;3.70;;
45909;SDS011;31622;55.416;37.840;2024-02-28T11:39:06;4.53;;;3.08;;
45909;SDS011;31622;55.416;37.840;2024-02-28T11:41:32;4.38;;;3.05;;
45909;SDS011;31622;55.416;37.840;2024-02-28T11:43:58;7.78;;;3.53;;
45909;SDS011;31622;55.416;37.840;2024-02-28T12:00:49;6.20;;;3.50;;
45909;SDS011;31622;55.416;37.840;2024-02-28T12:23:05;6.53;;;3.28;;
45909;SDS011;31622;55.416;37.840;2024-02-28T12:25:31;9.13;;;4.13;;
45909;SDS011;31622;55.416;37.840;2024-02-28T12:27:57;9.18;;;3.83;;
45909;SDS011;31622;55.416;37.840;2024-02-28T12:30:23;8.18;;;3.42;;
45909;SDS011;31622;55.416;37.840;2024-02-28T12:32:48;11.13;;;4.15;;
45909;SDS011;31622;55.416;37.840;2024-02-28T12:35:14;10.38;;;3.80;;
45909;SDS011;31622;55.416;37.840;2024-02-28T12:37:40;8.98;;;3.55;;
45909;SDS011;31622;55.416;37.840;2024-02-28T12:40:06;11.35;;;3.53;;
45909;SDS011;31622;55.416;37.840;2024-02-28T12:42:33;10.30;;;3.65;;
45909;SDS011;31622;55.416;37.840;2024-02-28T12:44:59;10.13;;;3.65;;
45909;SDS011;31622;55.416;37.840;2024-02-28T12:47:25;6.55;;;3.85;;
45909;SDS011;31622;55.416;37.840;2024-02-28T12:49:51;6.65;;;3.75;;
45909;SDS011;31622;55.416;37.840;2024-02-28T12:52:16;7.30;;;3.72;;
45909;SDS011;31622;55.416;37.840;2024-02-28T12:54:43;7.95;;;3.70;;
45909;SDS011;31622;55.416;37.840;2024-02-28T12:57:09;6.93;;;3.75;;
45909;SDS011;31622;55.416;37.840;2024-02-28T12:59:34;6.88;;;4.10;;
45909;SDS011;31622;55.416;37.840;2024-02-28T13:02:00;6.20;;;3.63;;
45909;SDS011;31622;55.416;37.840;2024-02-28T13:04:26;5.55;;;3.60;;
45909;SDS011;31622;55.416;37.840;2024-02-28T13:06:53;8.65;;;3.70;;
45909;SDS011;31622;55.416;37.840;2024-02-28T13:09:19;6.53;;;3.40;;
45909;SDS011;31622;55.416;37.840;2024-02-28T13:11:47;6.60;;;3.50;;
45909;SDS011;31622;55.416;37.840;2024-02-28T13:14:13;7.03;;;3.15;;
45909;SDS011;31622;55.416;37.840;2024-02-28T13:16:39;8.85;;;3.70;;
45909;SDS011;31622;55.416;37.840;2024-02-28T13:19:04;5.70;;;3.40;;
45909;SDS011;31622;55.416;37.840;2024-02-28T13:21:30;6.50;;;3.08;;
45909;SDS011;31622;55.416;37.840;2024-02-28T13:24:00;5.18;;;3.03;;
45909;SDS011;31622;55.416;37.840;2024-02-28T13:26:26;4.18;;;2.83;;
45909;SDS011;31622;55.416;37.840;2024-02-28T13:28:52;6.60;;;3.53;;
45909;SDS011;31622;55.416;37.840;2024-02-28T13:31:18;6.32;;;3.20;;
45909;SDS011;31622;55.416;37.840;2024-02-28T13:33:43;6.53;;;2.92;;
45909;SDS011;31622;55.416;37.840;2024-02-28T13:36:09;6.00;;;3.30;;
45909;SDS011;31622;55.416;37.840;2024-02-28T13:38:35;4.53;;;2.67;;
45909;SDS011;31622;55.416;37.840;2024-02-28T13:41:01;4.95;;;2.72;;
45909;SDS011;31622;55.416;37.840;2024-02-28T13:43:27;5.38;;;2.83;;
45909;SDS011;31622;55.416;37.840;2024-02-28T13:45:53;4.90;;;2.83;;
45909;SDS011;31622;55.416;37.840;2024-02-28T13:48:21;4.00;;;2.70;;
45909;SDS011;31622;55.416;37.840;2024-02-28T13:50:49;4.47;;;2.53;;
45909;SDS011;31622;55.416;37.840;2024-02-28T13:53:15;4.75;;;2.95;;
45909;SDS011;31622;55.416;37.840;2024-02-28T13:55:41;4.85;;;2.90;;
45909;SDS011;31622;55.416;37.840;2024-02-28T13:58:08;4.78;;;2.50;;
45909;SDS011;31622;55.416;37.840;2024-02-28T14:00:36;7.00;;;2.83;;
45909;SDS011;31622;55.416;37.840;2024-02-28T14:03:03;8.70;;;2.70;;
45909;SDS011;31622;55.416;37.840;2024-02-28T14:05:29;5.32;;;2.25;;
45909;SDS011;31622;55.416;37.840;2024-02-28T14:07:55;6.38;;;2.42;;
45909;SDS011;31622;55.416;37.840;2024-02-28T14:10:22;4.25;;;2.38;;
45909;SDS011;31622;55.416;37.840;2024-02-28T14:12:49;5.13;;;2.60;;
45909;SDS011;31622;55.416;37.840;2024-02-28T14:15:18;4.85;;;2.65;;
45909;SDS011;31622;55.416;37.840;2024-02-28T14:17:44;5.07;;;2.47;;
45909;SDS011;31622;55.416;37.840;2024-02-28T14:20:11;5.80;;;2.92;;
45909;SDS011;31622;55.416;37.840;2024-02-28T14:22:37;6.18;;;3.00;;
45909;SDS011;31622;55.416;37.840;2024-02-28T14:25:16;8.45;;;3.20;;
45909;SDS011;31622;55.416;37.840;2024-02-28T14:27:46;8.48;;;3.00;;
45909;SDS011;31622;55.416;37.840;2024-02-28T14:30:12;10.40;;;2.33;;
45909;SDS011;31622;55.416;37.840;2024-02-28T14:32:40;9.80;;;2.78;;
45909;SDS011;31622;55.416;37.840;2024-02-28T14:35:07;11.73;;;2.63;;
45909;SDS011;31622;55.416;37.840;2024-02-28T14:37:35;9.57;;;2.60;;
45909;SDS011;31622;55.416;37.840;2024-02-28T14:40:06;12.13;;;3.00;;
45909;SDS011;31622;55.416;37.840;2024-02-28T14:42:41;6.95;;;2.72;;
45909;SDS011;31622;55.416;37.840;2024-02-28T14:45:08;9.18;;;2.92;;
45909;SDS011;31622;55.416;37.840;2024-02-28T14:47:41;10.23;;;2.53;;
45909;SDS011;31622;55.416;37.840;2024-02-28T14:50:07;13.43;;;2.67;;
45909;SDS011;31622;55.416;37.840;2024-02-28T14:52:39;12.07;;;3.92;;
45909;SDS011;31622;55.416;37.840;2024-02-28T14:55:07;9.68;;;3.00;;
45909;SDS011;31622;55.416;37.840;2024-02-28T14:57:38;11.63;;;2.63;;
45909;SDS011;31622;55.416;37.840;2024-02-28T15:00:08;7.25;;;2.58;;